sensor_id;sensor_type;location;lat;lon;timestamp;P1;durP1;ratioP1;P2;durP2;ratioP2
43817;SDS011;29868;47.360;18.984;2022-12-29T00:01:24;43.38;;;23.15;;
43817;SDS011;29868;47.360;18.984;2022-12-29T00:03:49;42.88;;;23.42;;
43817;SDS011;29868;47.360;18.984;2022-12-29T00:06:15;44.88;;;23.80;;
43817;SDS011;29868;47.360;18.984;2022-12-29T00:08:40;49.08;;;23.60;;
43817;SDS011;29868;47.360;18.984;2022-12-29T00:11:10;48.30;;;23.35;;
43817;SDS011;29868;47.360;18.984;2022-12-29T00:13:40;43.28;;;23.75;;
43817;SDS011;29868;47.360;18.984;2022-12-29T00:16:25;43.60;;;23.45;;
43817;SDS011;29868;47.360;18.984;2022-12-29T00:18:51;45.28;;;23.42;;
43817;SDS011;29868;47.360;18.984;2022-12-29T00:21:17;49.95;;;23.77;;
43817;SDS011;29868;47.360;18.984;2022-12-29T00:24:01;40.22;;;21.58;;
43817;SDS011;29868;47.360;18.984;2022-12-29T00:26:50;44.75;;;22.67;;
43817;SDS011;29868;47.360;18.984;2022-12-29T00:29:40;43.70;;;22.10;;
43817;SDS011;29868;47.360;18.984;2022-12-29T00:32:24;45.25;;;21.30;;
43817;SDS011;29868;47.360;18.984;2022-12-29T00:35:09;41.97;;;21.65;;
43817;SDS011;29868;47.360;18.984;2022-12-29T00:37:37;42.97;;;21.08;;
43817;SDS011;29868;47.360;18.984;2022-12-29T00:40:24;41.88;;;21.65;;
43817;SDS011;29868;47.360;18.984;2022-12-29T00:43:08;42.63;;;21.45;;
43817;SDS011;29868;47.360;18.984;2022-12-29T00:45:52;43.03;;;22.25;;
43817;SDS011;29868;47.360;18.984;2022-12-29T00:48:17;43.33;;;22.30;;
43817;SDS011;29868;47.360;18.984;2022-12-29T00:51:03;44.08;;;22.75;;
43817;SDS011;29868;47.360;18.984;2022-12-29T00:53:28;43.05;;;22.30;;
43817;SDS011;29868;47.360;18.984;2022-12-29T00:55:53;42.70;;;23.33;;
43817;SDS011;29868;47.360;18.984;2022-12-29T00:58:19;50.50;;;23.70;;
43817;SDS011;29868;47.360;18.984;2022-12-29T01:00:44;45.58;;;23.52;;
43817;SDS011;29868;47.360;18.984;2022-12-29T01:03:09;41.75;;;22.55;;
43817;SDS011;29868;47.360;18.984;2022-12-29T01:05:38;47.83;;;22.88;;
43817;SDS011;29868;47.360;18.984;2022-12-29T01:08:03;43.97;;;21.80;;
43817;SDS011;29868;47.360;18.984;2022-12-29T01:10:29;44.13;;;23.90;;
43817;SDS011;29868;47.360;18.984;2022-12-29T01:12:54;49.08;;;22.92;;
43817;SDS011;29868;47.360;18.984;2022-12-29T01:15:20;41.45;;;21.48;;
43817;SDS011;29868;47.360;18.984;2022-12-29T01:17:46;48.15;;;23.75;;
43817;SDS011;29868;47.360;18.984;2022-12-29T01:20:11;38.80;;;21.15;;
43817;SDS011;29868;47.360;18.984;2022-12-29T01:22:37;43.60;;;22.88;;
43817;SDS011;29868;47.360;18.984;2022-12-29T01:25:04;51.33;;;23.17;;
43817;SDS011;29868;47.360;18.984;2022-12-29T01:27:30;47.60;;;23.17;;
43817;SDS011;29868;47.360;18.984;2022-12-29T01:29:55;46.53;;;22.40;;
43817;SDS011;29868;47.360;18.984;2022-12-29T01:32:20;46.67;;;22.70;;
43817;SDS011;29868;47.360;18.984;2022-12-29T01:34:46;43.28;;;21.17;;
43817;SDS011;29868;47.360;18.984;2022-12-29T01:37:12;39.33;;;19.23;;
43817;SDS011;29868;47.360;18.984;2022-12-29T01:39:37;39.78;;;19.00;;
43817;SDS011;29868;47.360;18.984;2022-12-29T01:42:02;35.58;;;18.77;;
43817;SDS011;29868;47.360;18.984;2022-12-29T01:44:47;32.38;;;18.73;;
43817;SDS011;29868;47.360;18.984;2022-12-29T01:47:19;37.15;;;18.25;;
43817;SDS011;29868;47.360;18.984;2022-12-29T01:49:52;34.47;;;17.48;;
43817;SDS011;29868;47.360;18.984;2022-12-29T01:52:20;37.80;;;18.13;;
43817;SDS011;29868;47.360;18.984;2022-12-29T01:54:48;30.95;;;17.65;;
43817;SDS011;29868;47.360;18.984;2022-12-29T01:57:19;34.97;;;16.58;;
43817;SDS011;29868;47.360;18.984;2022-12-29T01:59:58;32.13;;;17.02;;
43817;SDS011;29868;47.360;18.984;2022-12-29T02:02:36;32.20;;;16.70;;
43817;SDS011;29868;47.360;18.984;2022-12-29T02:05:08;34.33;;;15.90;;
43817;SDS011;29868;47.360;18.984;2022-12-29T02:07:39;31.35;;;16.55;;
43817;SDS011;29868;47.360;18.984;2022-12-29T02:10:06;33.67;;;17.55;;
43817;SDS011;29868;47.360;18.984;2022-12-29T02:12:31;33.53;;;17.52;;
43817;SDS011;29868;47.360;18.984;2022-12-29T02:14:58;31.48;;;17.95;;
43817;SDS011;29868;47.360;18.984;2022-12-29T02:28:53;36.85;;;17.17;;
43817;SDS011;29868;47.360;18.984;2022-12-29T02:34:12;31.13;;;16.70;;
43817;SDS011;29868;47.360;18.984;2022-12-29T02:37:12;35.47;;;16.83;;
43817;SDS011;29868;47.360;18.984;2022-12-29T02:39:52;31.80;;;17.33;;
43817;SDS011;29868;47.360;18.984;2022-12-29T02:42:38;36.80;;;17.98;;
43817;SDS011;29868;47.360;18.984;2022-12-29T02:45:16;34.63;;;16.98;;
43817;SDS011;29868;47.360;18.984;2022-12-29T02:50:51;36.03;;;17.60;;
43817;SDS011;29868;47.360;18.984;2022-12-29T02:53:22;34.35;;;17.98;;
43817;SDS011;29868;47.360;18.984;2022-12-29T02:56:13;35.40;;;16.45;;
43817;SDS011;29868;47.360;18.984;2022-12-29T02:58:38;34.45;;;18.60;;
43817;SDS011;29868;47.360;18.984;2022-12-29T03:01:54;34.08;;;18.10;;
43817;SDS011;29868;47.360;18.984;2022-12-29T03:15:26;32.22;;;17.00;;
43817;SDS011;29868;47.360;18.984;2022-12-29T03:18:24;35.35;;;16.85;;
43817;SDS011;29868;47.360;18.984;2022-12-29T03:21:14;37.75;;;18.00;;
43817;SDS011;29868;47.360;18.984;2022-12-29T03:23:45;34.20;;;17.00;;
43817;SDS011;29868;47.360;18.984;2022-12-29T03:26:14;37.67;;;18.98;;
43817;SDS011;29868;47.360;18.984;2022-12-29T03:28:45;40.38;;;19.05;;
43817;SDS011;29868;47.360;18.984;2022-12-29T03:31:15;34.50;;;17.30;;
43817;SDS011;29868;47.360;18.984;2022-12-29T03:33:42;36.05;;;18.88;;
43817;SDS011;29868;47.360;18.984;2022-12-29T03:36:10;38.65;;;18.75;;
43817;SDS011;29868;47.360;18.984;2022-12-29T03:38:43;35.53;;;20.05;;
43817;SDS011;29868;47.360;18.984;2022-12-29T03:41:16;38.17;;;17.48;;
43817;SDS011;29868;47.360;18.984;2022-12-29T03:43:45;37.75;;;18.08;;
43817;SDS011;29868;47.360;18.984;2022-12-29T03:46:11;33.40;;;17.67;;
43817;SDS011;29868;47.360;18.984;2022-12-29T03:48:36;35.20;;;17.40;;
43817;SDS011;29868;47.360;18.984;2022-12-29T03:51:02;35.65;;;17.42;;
43817;SDS011;29868;47.360;18.984;2022-12-29T03:53:27;37.85;;;18.10;;
43817;SDS011;29868;47.360;18.984;2022-12-29T03:55:53;36.85;;;16.95;;
43817;SDS011;29868;47.360;18.984;2022-12-29T03:58:18;33.83;;;17.33;;
43817;SDS011;29868;47.360;18.984;2022-12-29T04:00:43;36.10;;;17.70;;
43817;SDS011;29868;47.360;18.984;2022-12-29T04:03:09;37.78;;;18.20;;
43817;SDS011;29868;47.360;18.984;2022-12-29T04:05:34;33.60;;;17.65;;
43817;SDS011;29868;47.360;18.984;2022-12-29T04:08:00;32.13;;;16.30;;
43817;SDS011;29868;47.360;18.984;2022-12-29T04:10:25;31.23;;;16.38;;
43817;SDS011;29868;47.360;18.984;2022-12-29T04:12:51;36.28;;;16.52;;
43817;SDS011;29868;47.360;18.984;2022-12-29T04:15:16;35.72;;;17.77;;
43817;SDS011;29868;47.360;18.984;2022-12-29T04:17:42;30.25;;;15.68;;
43817;SDS011;29868;47.360;18.984;2022-12-29T04:20:07;31.88;;;17.30;;
43817;SDS011;29868;47.360;18.984;2022-12-29T04:23:01;32.97;;;16.05;;
43817;SDS011;29868;47.360;18.984;2022-12-29T04:25:28;31.95;;;16.30;;
43817;SDS011;29868;47.360;18.984;2022-12-29T04:27:53;37.90;;;17.33;;
43817;SDS011;29868;47.360;18.984;2022-12-29T04:30:19;35.28;;;17.63;;
43817;SDS011;29868;47.360;18.984;2022-12-29T04:32:45;33.47;;;16.10;;
43817;SDS011;29868;47.360;18.984;2022-12-29T04:35:10;34.33;;;16.58;;
43817;SDS011;29868;47.360;18.984;2022-12-29T04:37:35;32.65;;;16.17;;
43817;SDS011;29868;47.360;18.984;2022-12-29T04:40:01;34.25;;;17.02;;
43817;SDS011;29868;47.360;18.984;2022-12-29T04:42:26;38.42;;;18.70;;
43817;SDS011;29868;47.360;18.984;2022-12-29T04:44:51;35.22;;;17.70;;
43817;SDS011;29868;47.360;18.984;2022-12-29T04:47:17;36.30;;;17.75;;
43817;SDS011;29868;47.360;18.984;2022-12-29T04:49:42;32.95;;;18.00;;
43817;SDS011;29868;47.360;18.984;2022-12-29T04:52:07;38.90;;;18.35;;
43817;SDS011;29868;47.360;18.984;2022-12-29T04:54:33;38.78;;;18.95;;
43817;SDS011;29868;47.360;18.984;2022-12-29T04:56:59;34.13;;;18.77;;
43817;SDS011;29868;47.360;18.984;2022-12-29T04:59:24;36.42;;;17.92;;
43817;SDS011;29868;47.360;18.984;2022-12-29T05:01:50;36.15;;;18.58;;
43817;SDS011;29868;47.360;18.984;2022-12-29T05:04:15;35.85;;;18.77;;
43817;SDS011;29868;47.360;18.984;2022-12-29T05:06:40;37.13;;;18.67;;
43817;SDS011;29868;47.360;18.984;2022-12-29T05:09:06;38.00;;;18.83;;
43817;SDS011;29868;47.360;18.984;2022-12-29T05:11:31;34.80;;;18.13;;
43817;SDS011;29868;47.360;18.984;2022-12-29T05:13:56;33.95;;;17.80;;
43817;SDS011;29868;47.360;18.984;2022-12-29T05:16:22;36.13;;;18.13;;
43817;SDS011;29868;47.360;18.984;2022-12-29T05:18:47;35.90;;;17.70;;
43817;SDS011;29868;47.360;18.984;2022-12-29T05:21:13;35.63;;;18.23;;
43817;SDS011;29868;47.360;18.984;2022-12-29T05:23:38;36.45;;;18.38;;
43817;SDS011;29868;47.360;18.984;2022-12-29T05:26:03;36.15;;;18.58;;
43817;SDS011;29868;47.360;18.984;2022-12-29T05:28:29;33.53;;;17.58;;
43817;SDS011;29868;47.360;18.984;2022-12-29T05:30:54;35.92;;;18.05;;
43817;SDS011;29868;47.360;18.984;2022-12-29T05:33:20;35.50;;;19.15;;
43817;SDS011;29868;47.360;18.984;2022-12-29T05:35:45;41.00;;;19.75;;
43817;SDS011;29868;47.360;18.984;2022-12-29T05:38:11;37.25;;;19.67;;
43817;SDS011;29868;47.360;18.984;2022-12-29T05:40:36;39.03;;;20.48;;
43817;SDS011;29868;47.360;18.984;2022-12-29T05:43:02;41.60;;;20.33;;
43817;SDS011;29868;47.360;18.984;2022-12-29T05:45:27;40.22;;;19.83;;
43817;SDS011;29868;47.360;18.984;2022-12-29T05:47:53;35.33;;;17.92;;
43817;SDS011;29868;47.360;18.984;2022-12-29T05:50:18;41.25;;;19.63;;
43817;SDS011;29868;47.360;18.984;2022-12-29T05:52:43;36.75;;;19.10;;
43817;SDS011;29868;47.360;18.984;2022-12-29T05:55:09;47.13;;;20.10;;
43817;SDS011;29868;47.360;18.984;2022-12-29T05:57:35;38.03;;;19.38;;
43817;SDS011;29868;47.360;18.984;2022-12-29T06:00:00;41.78;;;19.50;;
43817;SDS011;29868;47.360;18.984;2022-12-29T06:02:26;41.28;;;19.65;;
43817;SDS011;29868;47.360;18.984;2022-12-29T06:04:52;41.33;;;20.58;;
43817;SDS011;29868;47.360;18.984;2022-12-29T06:07:17;40.53;;;20.35;;
43817;SDS011;29868;47.360;18.984;2022-12-29T06:09:43;39.13;;;19.17;;
43817;SDS011;29868;47.360;18.984;2022-12-29T06:12:08;35.78;;;18.88;;
43817;SDS011;29868;47.360;18.984;2022-12-29T06:14:33;42.15;;;20.15;;
43817;SDS011;29868;47.360;18.984;2022-12-29T06:16:59;38.53;;;18.48;;
43817;SDS011;29868;47.360;18.984;2022-12-29T06:19:25;40.72;;;19.63;;
43817;SDS011;29868;47.360;18.984;2022-12-29T06:21:50;38.47;;;18.60;;
43817;SDS011;29868;47.360;18.984;2022-12-29T06:24:17;35.70;;;18.38;;
43817;SDS011;29868;47.360;18.984;2022-12-29T06:26:43;37.58;;;18.88;;
43817;SDS011;29868;47.360;18.984;2022-12-29T06:29:08;41.50;;;18.48;;
43817;SDS011;29868;47.360;18.984;2022-12-29T06:31:34;35.28;;;18.15;;
43817;SDS011;29868;47.360;18.984;2022-12-29T06:33:59;40.53;;;19.63;;
43817;SDS011;29868;47.360;18.984;2022-12-29T06:36:24;39.05;;;19.02;;
43817;SDS011;29868;47.360;18.984;2022-12-29T06:38:50;39.40;;;19.13;;
43817;SDS011;29868;47.360;18.984;2022-12-29T06:41:17;40.58;;;19.58;;
43817;SDS011;29868;47.360;18.984;2022-12-29T06:43:43;38.72;;;19.05;;
43817;SDS011;29868;47.360;18.984;2022-12-29T06:46:08;39.78;;;19.15;;
43817;SDS011;29868;47.360;18.984;2022-12-29T06:48:34;40.47;;;20.40;;
43817;SDS011;29868;47.360;18.984;2022-12-29T06:50:59;38.35;;;18.70;;
43817;SDS011;29868;47.360;18.984;2022-12-29T06:53:25;36.83;;;17.77;;
43817;SDS011;29868;47.360;18.984;2022-12-29T06:55:50;42.55;;;19.52;;
43817;SDS011;29868;47.360;18.984;2022-12-29T06:58:16;44.10;;;21.73;;
43817;SDS011;29868;47.360;18.984;2022-12-29T07:00:41;36.10;;;18.50;;
43817;SDS011;29868;47.360;18.984;2022-12-29T07:03:06;44.17;;;22.30;;
43817;SDS011;29868;47.360;18.984;2022-12-29T07:05:32;41.63;;;21.55;;
43817;SDS011;29868;47.360;18.984;2022-12-29T07:07:58;42.95;;;22.48;;
43817;SDS011;29868;47.360;18.984;2022-12-29T07:10:23;45.40;;;22.23;;
43817;SDS011;29868;47.360;18.984;2022-12-29T07:12:49;43.80;;;22.00;;
43817;SDS011;29868;47.360;18.984;2022-12-29T07:15:15;48.17;;;22.45;;
43817;SDS011;29868;47.360;18.984;2022-12-29T07:17:40;42.75;;;21.38;;
43817;SDS011;29868;47.360;18.984;2022-12-29T07:20:06;43.80;;;21.92;;
43817;SDS011;29868;47.360;18.984;2022-12-29T07:22:32;44.33;;;22.02;;
43817;SDS011;29868;47.360;18.984;2022-12-29T07:24:58;44.13;;;21.55;;
43817;SDS011;29868;47.360;18.984;2022-12-29T07:27:23;41.13;;;20.85;;
43817;SDS011;29868;47.360;18.984;2022-12-29T07:29:48;44.83;;;21.92;;
43817;SDS011;29868;47.360;18.984;2022-12-29T07:32:14;41.45;;;21.70;;
43817;SDS011;29868;47.360;18.984;2022-12-29T07:34:39;44.80;;;21.45;;
43817;SDS011;29868;47.360;18.984;2022-12-29T07:37:05;45.03;;;21.23;;
43817;SDS011;29868;47.360;18.984;2022-12-29T07:39:31;42.00;;;19.77;;
43817;SDS011;29868;47.360;18.984;2022-12-29T07:41:56;42.42;;;21.33;;
43817;SDS011;29868;47.360;18.984;2022-12-29T07:44:21;41.88;;;19.67;;
43817;SDS011;29868;47.360;18.984;2022-12-29T07:46:47;47.25;;;22.13;;
43817;SDS011;29868;47.360;18.984;2022-12-29T07:49:12;47.15;;;22.33;;
43817;SDS011;29868;47.360;18.984;2022-12-29T07:51:38;50.28;;;23.98;;
43817;SDS011;29868;47.360;18.984;2022-12-29T07:54:03;48.13;;;23.08;;
43817;SDS011;29868;47.360;18.984;2022-12-29T07:56:29;44.85;;;22.88;;
43817;SDS011;29868;47.360;18.984;2022-12-29T07:58:54;48.97;;;22.40;;
43817;SDS011;29868;47.360;18.984;2022-12-29T08:01:19;33.45;;;18.02;;
43817;SDS011;29868;47.360;18.984;2022-12-29T08:03:46;42.30;;;20.75;;
43817;SDS011;29868;47.360;18.984;2022-12-29T08:06:12;42.53;;;21.13;;
43817;SDS011;29868;47.360;18.984;2022-12-29T08:08:37;40.05;;;20.10;;
43817;SDS011;29868;47.360;18.984;2022-12-29T08:11:03;43.85;;;20.25;;
43817;SDS011;29868;47.360;18.984;2022-12-29T08:13:28;41.65;;;20.50;;
43817;SDS011;29868;47.360;18.984;2022-12-29T08:15:54;36.00;;;19.75;;
43817;SDS011;29868;47.360;18.984;2022-12-29T08:18:19;39.22;;;20.45;;
43817;SDS011;29868;47.360;18.984;2022-12-29T08:20:45;38.47;;;20.00;;
43817;SDS011;29868;47.360;18.984;2022-12-29T08:23:10;42.95;;;21.15;;
43817;SDS011;29868;47.360;18.984;2022-12-29T08:25:36;40.28;;;19.13;;
43817;SDS011;29868;47.360;18.984;2022-12-29T08:28:01;42.42;;;21.38;;
43817;SDS011;29868;47.360;18.984;2022-12-29T08:30:27;38.63;;;20.23;;
43817;SDS011;29868;47.360;18.984;2022-12-29T08:32:52;41.17;;;19.92;;
43817;SDS011;29868;47.360;18.984;2022-12-29T08:35:17;39.38;;;20.08;;
43817;SDS011;29868;47.360;18.984;2022-12-29T08:37:43;42.50;;;20.50;;
43817;SDS011;29868;47.360;18.984;2022-12-29T08:40:08;38.08;;;20.02;;
43817;SDS011;29868;47.360;18.984;2022-12-29T08:42:34;35.63;;;18.85;;
43817;SDS011;29868;47.360;18.984;2022-12-29T08:45:00;38.42;;;20.25;;
43817;SDS011;29868;47.360;18.984;2022-12-29T08:47:25;39.42;;;20.92;;
43817;SDS011;29868;47.360;18.984;2022-12-29T08:49:51;41.03;;;21.15;;
43817;SDS011;29868;47.360;18.984;2022-12-29T08:52:17;43.42;;;21.90;;
43817;SDS011;29868;47.360;18.984;2022-12-29T08:54:43;39.65;;;21.17;;
43817;SDS011;29868;47.360;18.984;2022-12-29T08:57:08;38.72;;;20.17;;
43817;SDS011;29868;47.360;18.984;2022-12-29T08:59:34;40.28;;;20.80;;
43817;SDS011;29868;47.360;18.984;2022-12-29T09:01:59;39.45;;;19.65;;
43817;SDS011;29868;47.360;18.984;2022-12-29T09:04:26;40.45;;;20.38;;
43817;SDS011;29868;47.360;18.984;2022-12-29T09:06:52;39.40;;;21.33;;
43817;SDS011;29868;47.360;18.984;2022-12-29T09:09:18;38.78;;;20.73;;
43817;SDS011;29868;47.360;18.984;2022-12-29T09:11:44;41.10;;;20.48;;
43817;SDS011;29868;47.360;18.984;2022-12-29T09:14:10;40.92;;;21.23;;
43817;SDS011;29868;47.360;18.984;2022-12-29T09:16:36;44.72;;;21.70;;
43817;SDS011;29868;47.360;18.984;2022-12-29T09:19:01;40.55;;;20.85;;
43817;SDS011;29868;47.360;18.984;2022-12-29T09:21:27;46.50;;;22.45;;
43817;SDS011;29868;47.360;18.984;2022-12-29T09:23:53;38.42;;;21.23;;
43817;SDS011;29868;47.360;18.984;2022-12-29T09:26:18;37.05;;;20.40;;
43817;SDS011;29868;47.360;18.984;2022-12-29T09:28:44;45.92;;;22.30;;
43817;SDS011;29868;47.360;18.984;2022-12-29T09:31:09;46.50;;;23.15;;
43817;SDS011;29868;47.360;18.984;2022-12-29T09:33:35;52.67;;;25.13;;
43817;SDS011;29868;47.360;18.984;2022-12-29T09:36:00;44.70;;;23.23;;
43817;SDS011;29868;47.360;18.984;2022-12-29T09:38:27;43.10;;;21.85;;
43817;SDS011;29868;47.360;18.984;2022-12-29T09:40:55;44.55;;;22.23;;
43817;SDS011;29868;47.360;18.984;2022-12-29T09:46:27;41.80;;;22.20;;
43817;SDS011;29868;47.360;18.984;2022-12-29T09:51:40;34.72;;;20.02;;
43817;SDS011;29868;47.360;18.984;2022-12-29T09:54:19;37.67;;;20.30;;
43817;SDS011;29868;47.360;18.984;2022-12-29T09:56:46;35.97;;;19.92;;
43817;SDS011;29868;47.360;18.984;2022-12-29T09:59:15;41.65;;;20.95;;
43817;SDS011;29868;47.360;18.984;2022-12-29T10:01:52;34.50;;;18.00;;
43817;SDS011;29868;47.360;18.984;2022-12-29T10:04:27;35.30;;;19.58;;
43817;SDS011;29868;47.360;18.984;2022-12-29T10:07:04;36.00;;;19.02;;
43817;SDS011;29868;47.360;18.984;2022-12-29T10:23:40;36.00;;;20.33;;
43817;SDS011;29868;47.360;18.984;2022-12-29T10:26:43;36.42;;;19.63;;
43817;SDS011;29868;47.360;18.984;2022-12-29T10:29:11;39.15;;;19.95;;
43817;SDS011;29868;47.360;18.984;2022-12-29T10:31:50;39.05;;;20.02;;
43817;SDS011;29868;47.360;18.984;2022-12-29T10:34:29;38.85;;;20.80;;
43817;SDS011;29868;47.360;18.984;2022-12-29T10:37:00;42.53;;;22.05;;
43817;SDS011;29868;47.360;18.984;2022-12-29T10:39:40;37.05;;;19.60;;
43817;SDS011;29868;47.360;18.984;2022-12-29T10:42:14;39.88;;;22.10;;
43817;SDS011;29868;47.360;18.984;2022-12-29T10:44:45;37.70;;;19.05;;
43817;SDS011;29868;47.360;18.984;2022-12-29T10:47:31;40.35;;;19.13;;
43817;SDS011;29868;47.360;18.984;2022-12-29T10:50:02;38.05;;;18.75;;
43817;SDS011;29868;47.360;18.984;2022-12-29T10:52:29;38.33;;;20.33;;
43817;SDS011;29868;47.360;18.984;2022-12-29T10:55:02;38.33;;;20.20;;
43817;SDS011;29868;47.360;18.984;2022-12-29T10:57:45;33.90;;;18.77;;
43817;SDS011;29868;47.360;18.984;2022-12-29T11:05:20;36.42;;;21.13;;
43817;SDS011;29868;47.360;18.984;2022-12-29T11:07:51;42.72;;;22.65;;
43817;SDS011;29868;47.360;18.984;2022-12-29T11:15:26;42.30;;;22.23;;
43817;SDS011;29868;47.360;18.984;2022-12-29T11:17:53;40.75;;;21.45;;
43817;SDS011;29868;47.360;18.984;2022-12-29T11:22:53;36.08;;;20.15;;
43817;SDS011;29868;47.360;18.984;2022-12-29T11:25:18;36.08;;;19.30;;
43817;SDS011;29868;47.360;18.984;2022-12-29T11:30:28;35.08;;;19.75;;
43817;SDS011;29868;47.360;18.984;2022-12-29T11:32:56;36.92;;;19.98;;
43817;SDS011;29868;47.360;18.984;2022-12-29T11:35:35;37.90;;;20.25;;
43817;SDS011;29868;47.360;18.984;2022-12-29T11:38:05;41.55;;;21.02;;
43817;SDS011;29868;47.360;18.984;2022-12-29T11:40:42;40.00;;;21.38;;
43817;SDS011;29868;47.360;18.984;2022-12-29T11:43:11;37.58;;;20.98;;
43817;SDS011;29868;47.360;18.984;2022-12-29T11:46:16;36.08;;;20.05;;
43817;SDS011;29868;47.360;18.984;2022-12-29T11:48:46;39.88;;;21.65;;
43817;SDS011;29868;47.360;18.984;2022-12-29T11:51:12;38.67;;;21.20;;
43817;SDS011;29868;47.360;18.984;2022-12-29T11:53:46;40.40;;;22.05;;
43817;SDS011;29868;47.360;18.984;2022-12-29T11:56:15;42.58;;;21.85;;
43817;SDS011;29868;47.360;18.984;2022-12-29T11:58:42;40.45;;;20.33;;
43817;SDS011;29868;47.360;18.984;2022-12-29T12:04:04;38.92;;;21.15;;
43817;SDS011;29868;47.360;18.984;2022-12-29T12:06:35;39.75;;;20.88;;
43817;SDS011;29868;47.360;18.984;2022-12-29T12:09:28;39.03;;;21.20;;
43817;SDS011;29868;47.360;18.984;2022-12-29T12:11:57;41.90;;;22.15;;
43817;SDS011;29868;47.360;18.984;2022-12-29T12:14:37;40.70;;;21.42;;
43817;SDS011;29868;47.360;18.984;2022-12-29T12:17:15;39.25;;;21.40;;
43817;SDS011;29868;47.360;18.984;2022-12-29T12:22:31;36.55;;;20.65;;
43817;SDS011;29868;47.360;18.984;2022-12-29T12:25:03;36.70;;;21.27;;
43817;SDS011;29868;47.360;18.984;2022-12-29T12:27:43;38.08;;;21.55;;
43817;SDS011;29868;47.360;18.984;2022-12-29T12:30:20;38.10;;;20.90;;
43817;SDS011;29868;47.360;18.984;2022-12-29T12:32:55;39.17;;;21.13;;
43817;SDS011;29868;47.360;18.984;2022-12-29T12:41:00;37.50;;;21.23;;
43817;SDS011;29868;47.360;18.984;2022-12-29T12:43:47;35.70;;;20.45;;
43817;SDS011;29868;47.360;18.984;2022-12-29T12:49:27;37.03;;;21.08;;
43817;SDS011;29868;47.360;18.984;2022-12-29T12:52:32;38.88;;;21.02;;
43817;SDS011;29868;47.360;18.984;2022-12-29T13:03:35;42.25;;;22.08;;
43817;SDS011;29868;47.360;18.984;2022-12-29T13:27:40;39.38;;;21.65;;
43817;SDS011;29868;47.360;18.984;2022-12-29T13:30:09;44.72;;;22.92;;
43817;SDS011;29868;47.360;18.984;2022-12-29T13:38:18;41.85;;;21.40;;
43817;SDS011;29868;47.360;18.984;2022-12-29T13:40:50;43.30;;;22.13;;
43817;SDS011;29868;47.360;18.984;2022-12-29T13:43:20;41.33;;;21.33;;
43817;SDS011;29868;47.360;18.984;2022-12-29T13:45:50;37.65;;;21.00;;
43817;SDS011;29868;47.360;18.984;2022-12-29T13:48:34;38.58;;;21.30;;
43817;SDS011;29868;47.360;18.984;2022-12-29T13:51:01;41.15;;;21.52;;
43817;SDS011;29868;47.360;18.984;2022-12-29T13:56:41;41.78;;;22.85;;
43817;SDS011;29868;47.360;18.984;2022-12-29T14:02:07;37.00;;;20.77;;
43817;SDS011;29868;47.360;18.984;2022-12-29T14:04:34;39.30;;;22.10;;
43817;SDS011;29868;47.360;18.984;2022-12-29T14:07:05;36.45;;;20.50;;
43817;SDS011;29868;47.360;18.984;2022-12-29T14:09:50;38.85;;;21.75;;
43817;SDS011;29868;47.360;18.984;2022-12-29T14:12:22;37.90;;;21.90;;
43817;SDS011;29868;47.360;18.984;2022-12-29T14:15:06;39.67;;;20.75;;
43817;SDS011;29868;47.360;18.984;2022-12-29T14:17:41;39.08;;;21.42;;
43817;SDS011;29868;47.360;18.984;2022-12-29T14:20:18;41.28;;;21.77;;
43817;SDS011;29868;47.360;18.984;2022-12-29T14:28:23;40.15;;;22.30;;
43817;SDS011;29868;47.360;18.984;2022-12-29T14:30:54;43.00;;;22.25;;
43817;SDS011;29868;47.360;18.984;2022-12-29T14:33:21;41.38;;;22.48;;
43817;SDS011;29868;47.360;18.984;2022-12-29T14:35:50;41.78;;;22.02;;
43817;SDS011;29868;47.360;18.984;2022-12-29T14:38:27;60.13;;;31.25;;
43817;SDS011;29868;47.360;18.984;2022-12-29T14:43:58;57.10;;;29.88;;
43817;SDS011;29868;47.360;18.984;2022-12-29T14:46:41;48.47;;;25.55;;
43817;SDS011;29868;47.360;18.984;2022-12-29T14:49:15;41.75;;;22.95;;
43817;SDS011;29868;47.360;18.984;2022-12-29T14:51:43;39.22;;;22.58;;
43817;SDS011;29868;47.360;18.984;2022-12-29T14:56:59;46.10;;;24.88;;
43817;SDS011;29868;47.360;18.984;2022-12-29T14:59:29;55.45;;;28.65;;
43817;SDS011;29868;47.360;18.984;2022-12-29T15:01:57;45.83;;;25.40;;
43817;SDS011;29868;47.360;18.984;2022-12-29T15:04:25;43.63;;;22.58;;
43817;SDS011;29868;47.360;18.984;2022-12-29T15:06:55;44.80;;;23.33;;
43817;SDS011;29868;47.360;18.984;2022-12-29T15:09:31;44.88;;;24.20;;
43817;SDS011;29868;47.360;18.984;2022-12-29T15:12:04;45.63;;;24.88;;
43817;SDS011;29868;47.360;18.984;2022-12-29T15:14:48;48.30;;;26.73;;
43817;SDS011;29868;47.360;18.984;2022-12-29T15:17:24;47.13;;;26.23;;
43817;SDS011;29868;47.360;18.984;2022-12-29T15:19:49;48.47;;;27.00;;
43817;SDS011;29868;47.360;18.984;2022-12-29T15:22:15;50.53;;;25.08;;
43817;SDS011;29868;47.360;18.984;2022-12-29T15:24:41;48.80;;;24.75;;
43817;SDS011;29868;47.360;18.984;2022-12-29T15:27:10;49.58;;;26.60;;
43817;SDS011;29868;47.360;18.984;2022-12-29T15:29:40;49.10;;;24.80;;
43817;SDS011;29868;47.360;18.984;2022-12-29T15:32:26;46.97;;;24.00;;
43817;SDS011;29868;47.360;18.984;2022-12-29T15:34:54;44.50;;;23.67;;
43817;SDS011;29868;47.360;18.984;2022-12-29T15:37:28;46.20;;;24.60;;
43817;SDS011;29868;47.360;18.984;2022-12-29T15:39:58;41.85;;;22.15;;
43817;SDS011;29868;47.360;18.984;2022-12-29T15:45:05;47.58;;;24.10;;
43817;SDS011;29868;47.360;18.984;2022-12-29T15:47:32;51.88;;;27.10;;
43817;SDS011;29868;47.360;18.984;2022-12-29T15:50:00;53.85;;;27.95;;
43817;SDS011;29868;47.360;18.984;2022-12-29T15:52:33;47.97;;;24.20;;
43817;SDS011;29868;47.360;18.984;2022-12-29T15:55:00;47.28;;;24.75;;
43817;SDS011;29868;47.360;18.984;2022-12-29T15:57:31;48.90;;;24.80;;
43817;SDS011;29868;47.360;18.984;2022-12-29T16:02:29;43.35;;;20.92;;
43817;SDS011;29868;47.360;18.984;2022-12-29T16:04:55;46.65;;;23.00;;
43817;SDS011;29868;47.360;18.984;2022-12-29T16:07:25;47.08;;;24.60;;
43817;SDS011;29868;47.360;18.984;2022-12-29T16:09:54;54.72;;;26.50;;
43817;SDS011;29868;47.360;18.984;2022-12-29T16:12:24;54.47;;;27.73;;
43817;SDS011;29868;47.360;18.984;2022-12-29T16:14:59;51.28;;;28.05;;
43817;SDS011;29868;47.360;18.984;2022-12-29T16:17:28;53.92;;;28.00;;
43817;SDS011;29868;47.360;18.984;2022-12-29T16:20:00;57.95;;;29.65;;
43817;SDS011;29868;47.360;18.984;2022-12-29T16:22:39;53.63;;;28.60;;
43817;SDS011;29868;47.360;18.984;2022-12-29T16:25:09;61.58;;;30.58;;
43817;SDS011;29868;47.360;18.984;2022-12-29T16:27:40;83.18;;;38.72;;
43817;SDS011;29868;47.360;18.984;2022-12-29T16:30:17;68.68;;;35.95;;
43817;SDS011;29868;47.360;18.984;2022-12-29T16:32:46;59.60;;;29.92;;
43817;SDS011;29868;47.360;18.984;2022-12-29T16:37:46;55.55;;;27.95;;
43817;SDS011;29868;47.360;18.984;2022-12-29T16:42:47;53.25;;;27.45;;
43817;SDS011;29868;47.360;18.984;2022-12-29T16:47:47;56.03;;;27.08;;